createdAt,value
2017-04-22T00:00:02.512Z,9.5
2017-04-22T00:05:02.714Z,9.5
2017-04-22T00:10:02.569Z,9.5
2017-04-22T00:15:02.490Z,9.1
2017-04-22T00:20:02.576Z,9.3
2017-04-22T00:25:03.192Z,9.3
2017-04-22T00:30:02.908Z,9.3
2017-04-22T00:35:02.595Z,9.1
2017-04-22T00:40:03.244Z,9.1
2017-04-22T00:45:02.961Z,9.1
2017-04-22T00:50:02.794Z,7.5
2017-04-22T00:55:02.484Z,7.0
2017-04-22T01:00:03.173Z,7.0
2017-04-22T01:05:02.956Z,7.0
2017-04-22T01:10:02.602Z,7.0
2017-04-22T01:15:03.330Z,7.0
2017-04-22T01:20:03.125Z,7.0
2017-04-22T01:25:02.757Z,7.0
2017-04-22T01:30:02.475Z,7.0
2017-04-22T01:35:03.231Z,6.9
2017-04-22T01:40:03.091Z,6.9
2017-04-22T01:45:02.832Z,7.0
2017-04-22T01:50:02.619Z,6.9
2017-04-22T01:55:03.298Z,6.9
2017-04-22T02:00:03.199Z,6.6
2017-04-22T02:05:02.831Z,6.4
2017-04-22T02:10:02.649Z,6.0
2017-04-22T02:15:03.249Z,6.1
2017-04-22T02:20:03.014Z,6.0
2017-04-22T02:25:02.799Z,6.0
2017-04-22T02:30:02.525Z,5.8
2017-04-22T02:35:02.443Z,5.8
2017-04-22T02:40:03.276Z,5.5
2017-04-22T02:45:03.081Z,5.5
2017-04-22T02:50:03.040Z,5.5
2017-04-22T02:55:02.734Z,5.8
2017-04-22T03:00:03.304Z,5.8
2017-04-22T03:05:02.999Z,5.5
2017-04-22T03:10:02.851Z,5.5
2017-04-22T03:15:02.449Z,5.5
2017-04-22T03:20:03.182Z,5.8
2017-04-22T03:25:02.838Z,5.8
2017-04-22T03:30:02.442Z,5.8
2017-04-22T03:35:03.066Z,5.8
2017-04-22T03:40:02.708Z,5.8
2017-04-22T03:45:02.539Z,5.8
2017-04-22T03:50:03.172Z,5.8
2017-04-22T03:55:03.037Z,5.8
2017-04-22T04:00:02.886Z,5.5
2017-04-22T04:05:02.598Z,5.8
2017-04-22T04:10:03.409Z,5.8
2017-04-22T04:15:03.015Z,5.8
2017-04-22T04:20:02.752Z,5.9
2017-04-22T04:25:02.482Z,5.5
2017-04-22T04:30:03.305Z,5.8
2017-04-22T04:35:03.045Z,5.8
2017-04-22T04:40:02.736Z,5.8
2017-04-22T04:45:03.444Z,5.9
2017-04-22T04:50:03.174Z,5.9
2017-04-22T04:55:02.799Z,5.9
2017-04-22T05:00:02.551Z,6.0
2017-04-22T05:05:03.408Z,6.0
2017-04-22T05:10:03.086Z,6.1
2017-04-22T05:15:02.832Z,6.1
2017-04-22T05:20:02.560Z,6.1
2017-04-22T05:25:03.305Z,6.4
2017-04-22T05:30:02.917Z,6.1
2017-04-22T05:35:02.549Z,6.4
2017-04-22T05:40:03.348Z,6.5
2017-04-22T05:45:03.170Z,6.5
2017-04-22T05:50:02.902Z,6.6
2017-04-22T05:55:02.504Z,6.6
2017-04-22T06:00:03.251Z,6.5
2017-04-22T06:05:03.095Z,6.4
2017-04-22T06:10:02.864Z,6.4
2017-04-22T06:15:02.577Z,6.4
2017-04-22T06:20:03.293Z,5.9
2017-04-22T06:25:02.929Z,5.9
2017-04-22T06:30:02.502Z,6.0
2017-04-22T06:35:03.180Z,6.1
2017-04-22T06:40:02.967Z,6.6
2017-04-22T06:45:02.711Z,6.6
2017-04-22T06:50:02.483Z,6.6
2017-04-22T06:55:03.176Z,7.0
2017-04-22T07:00:02.903Z,8.5
2017-04-22T07:05:02.766Z,8.5
2017-04-22T07:10:02.493Z,9.0
2017-04-22T07:15:03.422Z,9.0
2017-04-22T07:20:02.447Z,8.8
2017-04-22T07:25:03.027Z,8.6
2017-04-22T07:30:02.726Z,8.5
2017-04-22T07:35:02.525Z,7.9
2017-04-22T07:40:03.232Z,8.0
2017-04-22T07:45:02.810Z,8.5
2017-04-22T07:50:02.458Z,7.1
2017-04-22T07:55:03.416Z,7.6
2017-04-22T08:00:03.153Z,7.6
2017-04-22T08:05:02.868Z,7.5
2017-04-22T08:10:02.516Z,7.0
2017-04-22T08:15:03.206Z,6.0
2017-04-22T08:20:02.809Z,5.9
2017-04-22T08:25:02.537Z,5.4
2017-04-22T08:30:03.315Z,5.0
2017-04-22T08:35:03.077Z,5.0
2017-04-22T08:40:02.890Z,5.4
2017-04-22T08:45:02.699Z,5.9
2017-04-22T08:50:02.574Z,5.9
2017-04-22T08:55:03.232Z,6.6
2017-04-22T09:00:02.884Z,7.0
2017-04-22T09:05:02.590Z,7.1
2017-04-22T09:10:02.462Z,8.1
2017-04-22T09:15:03.182Z,7.1
2017-04-22T09:20:02.848Z,7.1
2017-04-22T09:25:02.760Z,6.9
2017-04-22T09:30:02.780Z,7.0
2017-04-22T09:35:02.768Z,7.1
2017-04-22T09:40:02.948Z,8.5
2017-04-22T09:45:02.769Z,10.1
2017-04-22T09:50:02.645Z,12.8
2017-04-22T09:55:02.606Z,11.8
2017-04-22T10:00:02.449Z,11.8
2017-04-22T10:05:03.337Z,11.6
2017-04-22T10:10:02.427Z,11.3
2017-04-22T10:15:02.419Z,10.8
2017-04-22T10:20:03.373Z,10.8
2017-04-22T10:25:02.497Z,10.8
2017-04-22T10:30:02.881Z,11.3
2017-04-22T10:35:02.607Z,11.0
2017-04-22T10:40:03.152Z,12.3
2017-04-22T10:45:03.357Z,12.0
2017-04-22T10:50:02.846Z,11.8
2017-04-22T10:55:03.421Z,11.6
2017-04-22T11:00:03.247Z,11.1
2017-04-22T11:05:02.627Z,12.1
2017-04-22T11:10:02.875Z,11.8
2017-04-22T11:15:02.950Z,12.1
2017-04-22T11:20:03.102Z,12.0
2017-04-22T11:25:02.735Z,11.6
2017-04-22T11:30:02.837Z,11.3
2017-04-22T11:35:03.215Z,11.1
2017-04-22T11:40:02.753Z,11.6
2017-04-22T11:45:02.616Z,11.8
2017-04-22T11:50:02.413Z,11.6
2017-04-22T11:55:03.295Z,12.3
2017-04-22T12:00:03.237Z,12.5
2017-04-22T12:05:02.677Z,12.3
2017-04-22T12:10:02.681Z,12.6
2017-04-22T12:15:02.987Z,11.6
2017-04-22T12:20:03.053Z,11.6
2017-04-22T12:25:03.002Z,11.8
2017-04-22T12:30:03.346Z,11.3
2017-04-22T12:35:02.511Z,11.6
2017-04-22T12:40:03.201Z,12.6
2017-04-22T12:45:02.984Z,12.8
2017-04-22T12:50:02.506Z,12.5
2017-04-22T12:55:02.687Z,12.1
2017-04-22T13:00:02.724Z,12.0
2017-04-22T13:05:02.801Z,11.1
2017-04-22T13:10:03.375Z,10.8
2017-04-22T13:15:03.132Z,10.5
2017-04-22T13:20:03.171Z,10.8
2017-04-22T13:25:02.561Z,11.3
2017-04-22T13:30:03.125Z,11.3
2017-04-22T13:35:03.164Z,10.5
2017-04-22T13:40:03.212Z,10.3
2017-04-22T13:45:02.606Z,11.0
2017-04-22T13:50:02.977Z,10.8
2017-04-22T13:55:02.863Z,10.5
2017-04-22T14:00:03.435Z,10.5
2017-04-22T14:05:03.344Z,10.0
2017-04-22T14:10:02.889Z,10.1
2017-04-22T14:15:03.116Z,10.1
2017-04-22T14:20:02.628Z,10.1
2017-04-22T14:25:03.071Z,10.1
2017-04-22T14:30:02.566Z,10.8
2017-04-22T14:35:02.836Z,10.5
2017-04-22T14:40:03.248Z,10.3
2017-04-22T14:45:02.435Z,10.5
2017-04-22T14:50:02.613Z,10.6
2017-04-22T14:55:02.977Z,10.8
2017-04-22T15:00:03.375Z,10.8
2017-04-22T15:05:03.063Z,10.8
2017-04-22T15:10:02.396Z,10.8
2017-04-22T15:15:02.447Z,11.6
2017-04-22T15:20:03.276Z,12.0
2017-04-22T15:25:02.517Z,12.0
2017-04-22T15:30:02.769Z,13.3
2017-04-22T15:35:02.573Z,12.1
2017-04-22T15:40:02.545Z,10.8
2017-04-22T15:45:03.017Z,10.3
2017-04-22T15:50:03.139Z,10.6
2017-04-22T15:55:02.653Z,10.8
2017-04-22T16:00:02.416Z,10.5
2017-04-22T16:05:02.745Z,10.3
2017-04-22T16:10:02.846Z,10.5
2017-04-22T16:15:03.356Z,10.6
2017-04-22T16:20:03.270Z,10.1
2017-04-22T16:25:02.324Z,10.1
2017-04-22T16:30:02.868Z,10.8
2017-04-22T16:35:02.900Z,12.0
2017-04-22T16:40:02.727Z,10.6
2017-04-22T16:45:02.442Z,10.0
2017-04-22T16:50:02.922Z,9.3
2017-04-22T16:55:02.572Z,9.3
2017-04-22T17:00:02.492Z,9.0
2017-04-22T17:05:02.510Z,8.8
2017-04-22T17:10:02.873Z,9.0
2017-04-22T17:15:02.721Z,8.8
2017-04-22T17:20:02.914Z,8.6
2017-04-22T17:25:02.751Z,8.6
2017-04-22T17:30:02.598Z,8.5
2017-04-22T17:35:02.663Z,8.3
2017-04-22T17:40:03.009Z,8.3
2017-04-22T17:45:02.781Z,8.8
2017-04-22T17:50:02.841Z,8.8
2017-04-22T17:55:03.097Z,9.1
2017-04-22T18:00:02.838Z,8.5
2017-04-22T18:05:03.227Z,8.1
2017-04-22T18:10:03.359Z,7.9
2017-04-22T18:15:02.877Z,7.6
2017-04-22T18:20:03.346Z,7.5
2017-04-22T18:25:02.862Z,7.4
2017-04-22T18:30:02.454Z,7.1
2017-04-22T18:35:02.528Z,7.0
2017-04-22T18:40:02.798Z,6.9
2017-04-22T18:45:03.370Z,7.0
2017-04-22T18:50:02.909Z,7.0
2017-04-22T18:55:02.731Z,7.0
2017-04-22T19:00:02.638Z,7.0
2017-04-22T19:05:02.690Z,7.0
2017-04-22T19:10:03.191Z,7.0
2017-04-22T19:15:03.341Z,6.9
2017-04-22T19:20:03.088Z,6.6
2017-04-22T19:25:02.747Z,6.6
2017-04-22T19:30:03.187Z,6.6
2017-04-22T19:35:02.917Z,6.6
2017-04-22T19:40:03.068Z,6.6
2017-04-22T19:45:02.563Z,6.9
2017-04-22T19:50:02.860Z,6.6
2017-04-22T19:55:03.275Z,6.5
2017-04-22T20:00:03.006Z,6.1
2017-04-22T20:05:02.722Z,6.0
2017-04-22T20:10:03.174Z,6.0
2017-04-22T20:15:03.400Z,5.9
2017-04-22T20:20:03.424Z,5.9
2017-04-22T20:25:02.960Z,6.0
2017-04-22T20:30:03.136Z,5.9
2017-04-22T20:35:02.754Z,5.9
2017-04-22T20:40:03.225Z,5.8
2017-04-22T20:45:03.115Z,5.4
2017-04-22T20:50:02.915Z,5.4
2017-04-22T20:55:02.425Z,5.5
2017-04-22T21:00:02.601Z,5.4
2017-04-22T21:05:02.621Z,5.3
2017-04-22T21:10:03.438Z,5.0
2017-04-22T21:15:03.029Z,5.0
2017-04-22T21:20:02.740Z,5.0
2017-04-22T21:25:02.476Z,5.0
2017-04-22T21:30:03.043Z,5.0
2017-04-22T21:35:02.659Z,5.3
2017-04-22T21:40:03.398Z,5.3
2017-04-22T21:45:03.317Z,5.3
2017-04-22T21:50:02.945Z,5.0
2017-04-22T21:55:02.566Z,5.0
2017-04-22T22:00:03.326Z,5.0
2017-04-22T22:05:03.187Z,5.0
2017-04-22T22:10:02.843Z,5.0
2017-04-22T22:15:02.585Z,5.0
2017-04-22T22:20:03.204Z,4.8
2017-04-22T22:25:02.764Z,4.8
2017-04-22T22:30:02.439Z,5.0
2017-04-22T22:35:03.166Z,5.0
2017-04-22T22:40:02.833Z,5.0
2017-04-22T22:45:03.429Z,4.8
2017-04-22T22:51:06.250Z,4.8
2017-04-22T22:55:02.915Z,4.8
2017-04-22T23:00:02.636Z,4.8
2017-04-22T23:05:03.346Z,4.8
2017-04-22T23:10:02.957Z,4.5
2017-04-22T23:15:02.670Z,4.5
2017-04-22T23:20:02.468Z,4.0
2017-04-22T23:25:03.011Z,4.0
2017-04-22T23:30:02.582Z,4.0
2017-04-22T23:35:03.302Z,4.0
2017-04-22T23:40:03.052Z,4.0
2017-04-22T23:45:02.692Z,4.0
2017-04-22T23:50:03.421Z,4.0
2017-04-22T23:55:02.994Z,4.0
